Terminal Aerodrome Forecast
Issued by NWS

Home | Current Version | Previous Version | Text Only | Print | Product List | Glossary On
Versions: 1 2 3 4 5 6 7 8 9 10 11 12 13 14 15 16 17 18 19 20 21 22 23 24 25 26 27
000
FTUS43 KDTX 232320
TAFPTK
TAF
KPTK 232320Z 2400/2424 02005KT 1SM BR OVC003
     FM240200 04003KT 1/2SM -SHRA FG VV002
     FM240900 VRB03KT 3/4SM BR OVC004
     FM241500 30005KT 2SM BR OVC006
     FM241800 26005KT 5SM BR OVC014=

USA.gov is the U.S. government's official web portal to all federal, state and local government web resources and services.